Time;durP1;ratioP1;P1;durP2;ratioP2;P2;SDS_P1;SDS_P2;PMS_P1;PMS_P2;Temp;Humidity;BMP_temperature;BMP_pressure;BME280_temperature;BME280_humidity;BME280_pressure;Samples;Min_cycle;Max_cycle;Signal;HPM_P1;HPM_P2
2021/09/28 00:02:51;;;;;;;36.70;23.13;;;17.80;99.90;;;;;;5030073;28;20036;-66
2021/09/28 00:05:55;;;;;;;32.38;22.33;;;17.80;99.90;;;;;;5030106;28;20036;-66
2021/09/28 00:08:59;;;;;;;39.05;23.77;;;17.70;99.90;;;;;;5029835;28;20045;-65
2021/09/28 00:12:04;;;;;;;31.95;21.92;;;17.60;99.90;;;;;;5030209;28;20048;-66
2021/09/28 00:15:10;;;;;;;33.28;22.70;;;17.60;99.90;;;;;;5030228;28;20044;-66
2021/09/28 00:18:14;;;;;;;34.92;21.25;;;17.50;99.90;;;;;;5029677;28;20384;-66
2021/09/28 00:21:18;;;;;;;36.75;24.13;;;17.40;99.90;;;;;;5029984;28;20172;-67
2021/09/28 00:24:22;;;;;;;36.78;23.20;;;17.30;99.90;;;;;;5029951;28;20044;-66
2021/09/28 00:27:27;;;;;;;38.15;23.38;;;17.20;99.90;;;;;;5029870;28;20044;-65
2021/09/28 00:30:31;;;;;;;36.05;22.65;;;17.30;99.90;;;;;;5030017;28;20052;-66
2021/09/28 00:33:35;;;;;;;36.55;23.85;;;17.20;99.90;;;;;;5030052;28;20048;-66
2021/09/28 00:36:39;;;;;;;40.28;23.10;;;17.20;99.90;;;;;;5030070;28;20053;-66
2021/09/28 00:39:44;;;;;;;36.15;23.85;;;17.10;99.90;;;;;;5029185;28;20052;-66
2021/09/28 00:42:47;;;;;;;35.70;22.60;;;17.00;99.90;;;;;;5029955;28;20556;-66
2021/09/28 00:45:52;;;;;;;37.88;24.05;;;16.90;99.90;;;;;;5017874;28;20060;-66
2021/09/28 00:48:56;;;;;;;38.90;24.98;;;16.90;99.90;;;;;;5029519;28;20049;-66
2021/09/28 00:52:01;;;;;;;40.22;25.52;;;16.90;99.90;;;;;;5029924;28;20056;-67
2021/09/28 00:55:06;;;;;;;39.50;23.77;;;16.90;99.90;;;;;;5029653;28;20404;-66
2021/09/28 00:58:12;;;;;;;41.53;25.38;;;17.00;99.90;;;;;;5029622;28;20417;-66
2021/09/28 01:01:17;;;;;;;47.63;26.42;;;17.00;99.90;;;;;;5029770;28;20053;-66
2021/09/28 01:04:22;;;;;;;43.47;24.38;;;17.00;99.90;;;;;;5029440;28;20052;-66
2021/09/28 01:07:26;;;;;;;40.63;26.23;;;17.10;99.90;;;;;;5029777;28;20045;-66
2021/09/28 01:10:30;;;;;;;41.28;24.50;;;17.00;99.90;;;;;;5029338;28;20052;-66
2021/09/28 01:13:35;;;;;;;40.28;25.42;;;16.90;99.90;;;;;;5029423;28;20052;-66
2021/09/28 01:16:39;;;;;;;43.60;24.95;;;16.80;99.90;;;;;;5029506;28;20508;-66
2021/09/28 01:19:44;;;;;;;47.83;25.80;;;16.80;99.90;;;;;;5029008;28;20052;-66
2021/09/28 01:22:48;;;;;;;36.70;24.33;;;16.70;99.90;;;;;;5029268;28;20064;-66
2021/09/28 01:25:52;;;;;;;40.65;26.08;;;16.70;99.90;;;;;;5029719;28;20052;-66
2021/09/28 01:28:57;;;;;;;43.97;26.40;;;16.60;99.90;;;;;;5029135;28;20036;-65
2021/09/28 01:32:01;;;;;;;43.33;26.45;;;16.60;99.90;;;;;;5029394;28;20041;-65
2021/09/28 01:35:07;;;;;;;45.13;26.00;;;16.70;99.90;;;;;;5029259;28;20045;-66
2021/09/28 01:38:13;;;;;;;47.90;28.35;;;16.60;99.90;;;;;;5028649;28;20060;-66
2021/09/28 01:41:17;;;;;;;46.13;27.80;;;16.50;99.90;;;;;;5032737;28;20044;-66
2021/09/28 01:44:22;;;;;;;48.92;27.10;;;16.50;99.90;;;;;;5032480;28;20400;-66
2021/09/28 01:47:27;;;;;;;54.42;30.13;;;16.40;99.90;;;;;;5032729;28;20044;-66
2021/09/28 01:50:32;;;;;;;60.13;31.67;;;16.40;99.90;;;;;;5032594;28;20049;-66
2021/09/28 01:53:36;;;;;;;58.30;30.05;;;16.50;99.90;;;;;;5032565;28;20048;-66
2021/09/28 01:56:40;;;;;;;51.67;29.25;;;16.50;99.90;;;;;;5032221;28;20048;-66
2021/09/28 01:59:44;;;;;;;57.00;31.13;;;16.50;99.90;;;;;;5031839;28;20040;-65
2021/09/28 02:02:49;;;;;;;60.05;32.78;;;16.50;99.90;;;;;;5032544;28;20049;-65
2021/09/28 02:05:53;;;;;;;57.10;32.17;;;16.50;99.90;;;;;;5032352;28;20048;-66
2021/09/28 02:08:57;;;;;;;60.05;30.75;;;16.50;99.90;;;;;;5031908;28;20396;-66
2021/09/28 02:12:02;;;;;;;61.00;33.17;;;16.40;99.90;;;;;;5032570;28;20060;-65
2021/09/28 02:15:07;;;;;;;53.33;31.05;;;16.40;99.90;;;;;;5032057;28;20057;-66
2021/09/28 02:18:11;;;;;;;56.05;29.20;;;16.40;99.90;;;;;;5031576;28;20045;-66
2021/09/28 02:21:15;;;;;;;52.95;31.23;;;16.30;99.90;;;;;;5032081;28;20269;-66
2021/09/28 02:24:21;;;;;;;55.70;32.03;;;16.30;99.90;;;;;;5032510;28;20048;-66
2021/09/28 02:27:25;;;;;;;53.65;31.83;;;16.30;99.90;;;;;;5032085;28;20052;-66
2021/09/28 02:30:29;;;;;;;56.17;31.45;;;16.30;99.90;;;;;;5031874;28;20051;-65
2021/09/28 02:33:33;;;;;;;57.00;33.28;;;16.30;99.90;;;;;;5032065;28;20060;-66
2021/09/28 02:36:38;;;;;;;62.25;32.85;;;16.30;99.90;;;;;;5031834;28;20506;-65
2021/09/28 02:39:42;;;;;;;60.42;33.67;;;16.30;99.90;;;;;;5031290;28;20052;-66
2021/09/28 02:42:46;;;;;;;53.50;30.58;;;16.30;99.90;;;;;;5031832;28;20052;-66
2021/09/28 02:45:50;;;;;;;52.92;31.95;;;16.30;99.90;;;;;;5031597;28;20392;-66
2021/09/28 02:48:54;;;;;;;56.38;31.70;;;16.30;99.90;;;;;;5031519;28;20041;-66
2021/09/28 02:51:58;;;;;;;55.08;31.20;;;16.20;99.90;;;;;;5019389;28;20064;-66
2021/09/28 02:55:03;;;;;;;63.15;33.65;;;16.10;99.90;;;;;;5031616;28;20048;-66
2021/09/28 02:58:08;;;;;;;54.97;29.83;;;16.10;99.90;;;;;;5031751;28;20049;-65
2021/09/28 03:01:12;;;;;;;60.30;32.92;;;16.10;99.90;;;;;;5031727;28;20053;-66
2021/09/28 03:04:16;;;;;;;49.75;29.15;;;16.10;99.90;;;;;;5031829;28;20041;-66
2021/09/28 03:07:20;;;;;;;63.42;31.23;;;16.10;99.90;;;;;;5031039;28;20048;-66
2021/09/28 03:10:24;;;;;;;51.35;29.95;;;16.10;99.90;;;;;;5018695;28;20048;-66
2021/09/28 03:13:29;;;;;;;47.33;28.13;;;16.10;99.90;;;;;;5030849;28;20052;-66
2021/09/28 03:16:33;;;;;;;47.72;28.15;;;16.00;99.90;;;;;;5030836;28;20048;-65
2021/09/28 03:19:38;;;;;;;48.20;29.60;;;16.00;99.90;;;;;;5030214;28;20064;-65
2021/09/28 03:22:42;;;;;;;50.95;29.75;;;15.90;99.90;;;;;;5031229;28;20064;-66
2021/09/28 03:25:46;;;;;;;50.13;30.33;;;15.80;99.90;;;;;;5030624;28;20064;-66
2021/09/28 03:28:50;;;;;;;49.97;29.65;;;15.70;99.90;;;;;;5030285;28;20048;-65
2021/09/28 03:31:54;;;;;;;54.80;30.00;;;15.70;99.90;;;;;;5031285;28;20052;-65
2021/09/28 03:34:58;;;;;;;56.67;31.13;;;15.70;99.90;;;;;;5030552;28;20519;-65
2021/09/28 03:38:02;;;;;;;46.45;28.88;;;15.70;99.90;;;;;;5030026;28;20405;-65
2021/09/28 03:41:06;;;;;;;46.13;27.83;;;15.70;99.90;;;;;;5030478;28;20491;-66
2021/09/28 03:44:10;;;;;;;48.38;30.20;;;15.60;99.90;;;;;;5030373;28;20442;-65
2021/09/28 03:47:14;;;;;;;49.53;28.45;;;15.50;99.90;;;;;;5030306;28;20117;-66
2021/09/28 03:50:18;;;;;;;46.30;29.90;;;15.50;99.90;;;;;;5030043;28;20607;-66
2021/09/28 03:53:22;;;;;;;51.63;30.08;;;15.60;99.90;;;;;;5030019;28;20052;-66
2021/09/28 03:56:26;;;;;;;50.00;30.40;;;15.60;99.90;;;;;;5030301;28;20478;-66
2021/09/28 03:59:30;;;;;;;44.00;27.40;;;15.60;99.90;;;;;;5029757;28;20056;-65
2021/09/28 04:02:34;;;;;;;46.70;27.80;;;15.60;99.90;;;;;;5029737;28;20053;-65
2021/09/28 04:05:39;;;;;;;50.67;28.58;;;15.50;99.90;;;;;;5029929;28;20108;-66
2021/09/28 04:08:43;;;;;;;41.95;26.73;;;15.50;99.90;;;;;;5029661;28;20040;-66
2021/09/28 04:11:47;;;;;;;45.90;28.13;;;15.50;99.90;;;;;;5029742;28;20052;-66
2021/09/28 04:14:51;;;;;;;48.03;28.63;;;15.40;99.90;;;;;;5030099;28;20503;-66
2021/09/28 04:17:55;;;;;;;45.40;26.35;;;15.40;99.90;;;;;;5029878;28;20036;-65
2021/09/28 04:21:01;;;;;;;53.88;31.15;;;15.30;99.90;;;;;;5029932;28;20072;-66
2021/09/28 04:24:06;;;;;;;51.85;29.10;;;15.30;99.90;;;;;;5029907;28;20053;-65
2021/09/28 04:27:10;;;;;;;53.53;30.42;;;15.20;99.90;;;;;;5029860;28;20052;-66
2021/09/28 04:30:14;;;;;;;49.80;29.33;;;15.20;99.90;;;;;;5029920;28;20045;-65
2021/09/28 04:33:18;;;;;;;58.13;32.10;;;15.10;99.90;;;;;;5029909;28;20044;-66
2021/09/28 04:36:22;;;;;;;55.72;33.05;;;15.10;99.90;;;;;;5017379;28;20357;-65
2021/09/28 04:39:26;;;;;;;51.30;29.15;;;15.10;99.90;;;;;;5029601;28;20125;-66
2021/09/28 04:42:31;;;;;;;52.72;30.52;;;15.00;99.90;;;;;;5029792;28;20045;-66
2021/09/28 04:45:34;;;;;;;74.82;30.77;;;14.90;99.90;;;;;;5029626;28;20072;-66
2021/09/28 04:48:39;;;;;;;54.45;30.55;;;14.80;99.90;;;;;;5028788;28;20411;-65
2021/09/28 04:51:43;;;;;;;55.00;30.50;;;14.70;99.90;;;;;;5029737;28;20395;-65
2021/09/28 04:54:47;;;;;;;62.47;32.40;;;14.70;99.90;;;;;;5029473;28;20064;-66
2021/09/28 04:57:51;;;;;;;49.13;29.38;;;14.60;99.90;;;;;;5029541;28;20052;-65
2021/09/28 05:00:55;;;;;;;54.03;28.92;;;14.50;99.90;;;;;;5028600;28;20053;-66
2021/09/28 05:03:59;;;;;;;55.35;29.88;;;14.50;99.90;;;;;;5029803;28;20804;-66
2021/09/28 05:07:03;;;;;;;65.85;32.55;;;14.80;99.90;;;;;;5029325;28;20040;-66
2021/09/28 05:10:08;;;;;;;91.90;35.20;;;14.90;99.90;;;;;;5029906;28;20471;-66
2021/09/28 05:13:12;;;;;;;112.78;35.85;;;15.00;99.90;;;;;;5030373;28;20040;-65
2021/09/28 05:16:18;;;;;;;89.60;31.00;;;15.00;99.90;;;;;;5033761;28;20044;-65
2021/09/28 05:19:23;;;;;;;71.60;27.95;;;14.90;99.90;;;;;;5032215;28;20049;-66
2021/09/28 05:22:26;;;;;;;47.90;23.67;;;14.90;99.90;;;;;;5033184;28;20048;-66
2021/09/28 05:25:30;;;;;;;43.90;25.73;;;14.90;99.90;;;;;;5033190;28;20048;-66
2021/09/28 05:28:34;;;;;;;60.30;28.20;;;14.80;99.90;;;;;;5032809;28;20044;-66
2021/09/28 05:31:38;;;;;;;50.28;27.40;;;14.70;99.90;;;;;;5020110;28;20044;-66
2021/09/28 05:34:42;;;;;;;51.38;28.45;;;14.70;99.90;;;;;;5013254;28;20526;-66
2021/09/28 05:37:46;;;;;;;44.75;25.52;;;14.70;99.90;;;;;;5013089;28;20040;-66
2021/09/28 05:40:51;;;;;;;336.13;36.63;;;14.80;99.90;;;;;;5013196;28;20143;-65
2021/09/28 05:43:55;;;;;;;57.90;26.30;;;14.60;99.90;;;;;;5013178;28;20041;-66
2021/09/28 05:46:59;;;;;;;226.30;33.63;;;14.60;99.90;;;;;;5018353;28;20060;-66
2021/09/28 05:50:06;;;;;;;65.43;26.20;;;14.60;99.90;;;;;;5032584;28;20040;-66
2021/09/28 05:53:11;;;;;;;57.58;22.95;;;14.60;99.90;;;;;;5032702;28;20095;-66
2021/09/28 05:56:16;;;;;;;60.10;21.55;;;14.60;99.90;;;;;;5032389;28;20041;-65
2021/09/28 05:59:22;;;;;;;54.15;22.55;;;14.90;99.90;;;;;;5031940;28;20391;-66
2021/09/28 06:02:26;;;;;;;28.98;18.55;;;15.20;99.90;;;;;;5032769;28;20060;-67
2021/09/28 06:05:31;;;;;;;44.17;20.98;;;15.40;99.90;;;;;;5028763;28;20029;-68
2021/09/28 06:08:36;;;;;;;27.02;18.70;;;15.60;99.90;;;;;;5015823;28;20653;-67
2021/09/28 06:11:41;;;;;;;169.75;23.02;;;15.90;99.90;;;;;;5026495;28;20048;-68
2021/09/28 06:14:45;;;;;;;34.70;19.80;;;15.90;99.90;;;;;;5000794;28;20041;-67
2021/09/28 06:17:49;;;;;;;60.40;19.60;;;16.20;99.90;;;;;;5016705;28;20037;-66
2021/09/28 06:20:54;;;;;;;61.53;20.02;;;16.50;99.90;;;;;;5022398;28;20044;-67
2021/09/28 06:23:58;;;;;;;179.52;22.33;;;16.90;99.90;;;;;;5005180;28;20037;-67
2021/09/28 06:27:07;;;;;;;30.75;17.65;;;17.20;99.90;;;;;;5011922;28;20392;-67
2021/09/28 06:30:12;;;;;;;195.70;21.58;;;17.60;99.90;;;;;;5011499;28;20392;-67
2021/09/28 06:33:16;;;;;;;24.05;17.80;;;17.30;99.90;;;;;;5012046;28;20496;-67
2021/09/28 06:36:20;;;;;;;50.40;18.65;;;17.80;99.90;;;;;;5024046;28;20048;-67
2021/09/28 06:39:24;;;;;;;84.43;17.70;;;18.10;99.90;;;;;;5018626;28;20048;-67
2021/09/28 06:42:28;;;;;;;36.38;18.20;;;18.10;99.90;;;;;;5017243;28;20052;-67
2021/09/28 06:45:33;;;;;;;52.05;18.75;;;18.20;99.90;;;;;;5020114;28;20044;-67
2021/09/28 06:48:37;;;;;;;227.45;25.35;;;19.00;99.90;;;;;;5016233;28;20040;-67
2021/09/28 06:51:42;;;;;;;52.92;19.25;;;18.70;99.90;;;;;;5020033;28;20044;-67
2021/09/28 06:54:46;;;;;;;352.58;28.65;;;18.60;99.90;;;;;;5014071;28;20070;-66
2021/09/28 06:57:50;;;;;;;39.38;21.60;;;17.60;99.90;;;;;;5020898;28;20048;-67
2021/09/28 07:00:55;;;;;;;135.52;24.77;;;17.90;99.90;;;;;;5013145;28;20057;-67
2021/09/28 07:03:58;;;;;;;261.60;28.95;;;18.10;99.90;;;;;;5021740;28;20040;-67
2021/09/28 07:07:02;;;;;;;83.47;24.77;;;18.90;99.90;;;;;;5030906;28;20041;-67
2021/09/28 07:10:07;;;;;;;53.67;21.92;;;19.60;99.90;;;;;;5026230;28;20037;-67
2021/09/28 07:13:12;;;;;;;30.05;21.38;;;20.80;99.90;;;;;;5014173;28;20037;-67
2021/09/28 07:16:17;;;;;;;38.38;21.00;;;22.90;99.90;;;;;;5023536;28;20041;-68
2021/09/28 07:19:22;;;;;;;45.50;20.95;;;24.60;99.90;;;;;;5011540;28;20109;-67
2021/09/28 07:22:28;;;;;;;27.63;20.08;;;23.50;99.90;;;;;;5021004;28;20044;-66
2021/09/28 07:25:33;;;;;;;83.60;22.73;;;25.30;99.90;;;;;;5019123;28;20049;-67
2021/09/28 07:28:38;;;;;;;32.30;17.83;;;25.30;99.90;;;;;;5015501;28;20487;-67
2021/09/28 07:31:42;;;;;;;68.07;18.85;;;24.50;99.90;;;;;;5017162;28;20108;-67
2021/09/28 07:34:46;;;;;;;62.22;19.23;;;24.20;99.90;;;;;;5020906;28;20435;-66
2021/09/28 07:37:50;;;;;;;32.50;19.92;;;23.80;99.90;;;;;;5015759;28;20613;-67
2021/09/28 07:40:54;;;;;;;49.42;18.80;;;23.60;99.90;;;;;;5018017;28;20495;-66
2021/09/28 07:43:59;;;;;;;30.08;19.05;;;23.80;99.90;;;;;;5007233;28;20053;-67
2021/09/28 07:47:04;;;;;;;163.07;20.95;;;24.00;99.90;;;;;;5019634;28;20400;-67
2021/09/28 07:50:09;;;;;;;27.58;19.45;;;23.60;99.90;;;;;;5014034;28;20048;-66
2021/09/28 07:53:14;;;;;;;36.92;19.90;;;24.40;99.90;;;;;;5015447;28;20408;-66
2021/09/28 07:56:18;;;;;;;30.30;19.92;;;25.10;99.90;;;;;;5016526;28;20040;-66
2021/09/28 07:59:22;;;;;;;28.23;20.63;;;25.40;99.90;;;;;;5023947;28;20045;-66
2021/09/28 08:02:26;;;;;;;21.65;18.10;;;25.70;99.90;;;;;;5018415;28;20048;-66
2021/09/28 08:05:30;;;;;;;25.80;18.55;;;26.30;99.90;;;;;;5015653;28;20041;-66
2021/09/28 08:08:34;;;;;;;25.83;20.15;;;28.60;99.90;;;;;;5012488;28;20049;-66
2021/09/28 08:11:38;;;;;;;22.20;18.52;;;27.60;99.90;;;;;;5012497;28;20040;-65
2021/09/28 08:14:42;;;;;;;21.55;17.17;;;29.70;99.60;;;;;;5021381;28;20060;-66
2021/09/28 08:17:46;;;;;;;20.40;14.73;;;31.00;97.10;;;;;;5018673;28;20052;-66
2021/09/28 08:20:51;;;;;;;17.30;14.90;;;31.40;96.70;;;;;;5013200;28;20052;-66
2021/09/28 08:23:56;;;;;;;18.50;15.20;;;32.00;94.60;;;;;;5014918;28;20479;-66
2021/09/28 08:30:23;;;;;;;19.85;16.00;;;32.00;92.30;;;;;;5015743;28;20033;-66
2021/09/28 08:33:27;;;;;;;18.77;16.42;;;31.60;93.40;;;;;;5018285;28;20466;-65
2021/09/28 08:36:32;;;;;;;20.35;17.10;;;31.70;92.80;;;;;;5026289;28;20400;-66
2021/09/28 08:39:36;;;;;;;17.92;15.38;;;31.80;93.00;;;;;;5016844;28;20064;-66
2021/09/28 08:42:41;;;;;;;20.23;16.40;;;33.10;91.80;;;;;;5027081;28;20045;-66
2021/09/28 08:45:45;;;;;;;18.73;16.25;;;34.80;89.50;;;;;;5004792;28;20041;-66
2021/09/28 08:48:50;;;;;;;23.85;21.05;;;35.00;88.20;;;;;;5011920;28;20503;-65
2021/09/28 08:51:54;;;;;;;25.80;22.83;;;30.50;91.10;;;;;;5015381;28;20049;-66
2021/09/28 08:54:59;;;;;;;21.90;18.92;;;30.00;93.30;;;;;;5021484;28;20399;-66
2021/09/28 08:58:18;;;;;;;26.63;19.33;;;32.50;91.20;;;;;;5025978;28;20049;-65
2021/09/28 09:01:23;;;;;;;20.88;17.55;;;32.20;90.90;;;;;;5017831;28;20041;-66
2021/09/28 09:04:28;;;;;;;21.77;17.73;;;33.30;90.60;;;;;;5015670;28;20061;-65
2021/09/28 09:07:32;;;;;;;20.00;16.08;;;32.10;90.50;;;;;;5015467;28;20048;-67
2021/09/28 09:10:37;;;;;;;15.20;13.60;;;34.00;89.50;;;;;;5012637;28;20057;-66
2021/09/28 09:13:47;;;;;;;18.13;13.43;;;34.90;85.80;;;;;;5013547;28;20041;-66
2021/09/28 09:16:53;;;;;;;15.57;13.57;;;34.40;86.80;;;;;;5016430;28;20049;-66
2021/09/28 09:20:22;;;;;;;13.18;11.77;;;34.60;87.30;;;;;;5012885;28;20037;-66
2021/09/28 09:23:29;;;;;;;16.98;12.57;;;36.30;83.90;;;;;;5018354;28;20117;-66
2021/09/28 09:26:33;;;;;;;16.85;12.20;;;35.40;82.50;;;;;;5016096;28;20052;-66
2021/09/28 09:29:38;;;;;;;13.48;11.55;;;35.80;81.80;;;;;;5012668;28;20057;-67
2021/09/28 09:32:56;;;;;;;13.57;11.57;;;37.50;80.00;;;;;;5025767;28;20352;-66
2021/09/28 09:36:00;;;;;;;15.60;11.95;;;38.40;78.40;;;;;;5021130;28;20044;-66
2021/09/28 09:39:09;;;;;;;11.32;9.07;;;37.20;76.60;;;;;;5015798;28;20064;-67
2021/09/28 09:42:15;;;;;;;12.05;10.75;;;39.50;74.20;;;;;;5021719;28;20048;-66
2021/09/28 09:45:24;;;;;;;12.43;10.25;;;39.20;69.70;;;;;;5013318;28;20393;-65
2021/09/28 09:48:32;;;;;;;12.30;10.23;;;38.10;72.50;;;;;;5013300;28;20044;-66
2021/09/28 09:51:41;;;;;;;11.32;9.95;;;38.30;72.50;;;;;;5018325;28;20060;-67
2021/09/28 09:54:45;;;;;;;12.88;9.70;;;39.70;70.50;;;;;;5012585;28;20045;-66
2021/09/28 09:57:49;;;;;;;12.70;11.25;;;39.70;69.60;;;;;;5014855;28;20057;-66
2021/09/28 10:00:54;;;;;;;10.73;9.15;;;35.40;71.40;;;;;;5022660;28;20044;-67
2021/09/28 10:03:58;;;;;;;13.55;10.40;;;36.40;71.40;;;;;;5017261;28;20045;-66
2021/09/28 10:07:04;;;;;;;10.98;8.38;;;35.80;70.30;;;;;;5026147;28;20048;-67
2021/09/28 10:10:14;;;;;;;9.80;8.80;;;36.30;70.50;;;;;;5030113;28;20052;-66
2021/09/28 10:13:47;;;;;;;13.15;10.10;;;34.80;71.10;;;;;;5025554;28;20045;-66
2021/09/28 10:16:54;;;;;;;11.30;9.75;;;34.60;71.20;;;;;;5019756;28;20041;-66
2021/09/28 10:20:02;;;;;;;12.75;10.30;;;35.80;72.10;;;;;;5025619;28;20052;-66
2021/09/28 10:23:15;;;;;;;11.95;9.55;;;36.30;72.50;;;;;;5013228;28;20052;-66
2021/09/28 10:26:19;;;;;;;11.80;9.38;;;37.00;71.70;;;;;;5018462;28;20048;-66
2021/09/28 10:29:41;;;;;;;12.65;9.98;;;36.00;70.00;;;;;;5016318;28;20045;-66
2021/09/28 10:32:47;;;;;;;11.82;9.43;;;32.50;73.40;;;;;;5022015;28;20037;-66
2021/09/28 10:36:16;;;;;;;9.80;8.80;;;34.20;72.90;;;;;;5023629;28;20057;-66
2021/09/28 10:39:37;;;;;;;10.52;7.82;;;36.40;71.50;;;;;;5016846;28;20065;-67
2021/09/28 10:43:02;;;;;;;9.55;8.50;;;39.70;67.90;;;;;;5014186;28;20041;-67
2021/09/28 10:46:06;;;;;;;11.82;8.95;;;41.60;66.60;;;;;;5013240;28;20080;-67
2021/09/28 10:49:31;;;;;;;16.52;9.30;;;41.80;65.00;;;;;;5019099;28;20033;-67
2021/09/28 10:52:36;;;;;;;10.20;8.18;;;43.10;63.10;;;;;;5018943;28;20053;-67
2021/09/28 10:56:00;;;;;;;10.05;8.27;;;43.10;62.60;;;;;;5015577;28;20064;-66
2021/09/28 10:59:06;;;;;;;12.73;8.32;;;43.30;61.50;;;;;;5015063;28;20044;-67
2021/09/28 11:02:11;;;;;;;10.45;9.10;;;41.40;60.90;;;;;;5015463;28;20068;-67
2021/09/28 11:05:38;;;;;;;13.07;8.75;;;41.10;62.80;;;;;;5012387;28;20044;-66
2021/09/28 11:08:42;;;;;;;9.35;7.43;;;39.80;62.90;;;;;;5025331;28;20040;-66
2021/09/28 11:11:53;;;;;;;8.40;7.60;;;39.70;60.80;;;;;;5014299;28;20041;-67
2021/09/28 11:14:59;;;;;;;9.07;7.22;;;41.30;62.60;;;;;;5020165;28;20041;-67
2021/09/28 11:18:15;;;;;;;9.90;7.10;;;44.00;60.40;;;;;;5010885;28;20396;-67
2021/09/28 11:21:20;;;;;;;9.85;8.25;;;45.20;58.00;;;;;;5017367;28;20037;-67
2021/09/28 11:24:30;;;;;;;7.50;6.70;;;45.10;57.90;;;;;;5020618;28;20045;-66
2021/09/28 11:27:34;;;;;;;8.20;7.40;;;44.70;57.10;;;;;;5023038;28;20041;-66
2021/09/28 11:30:50;;;;;;;6.78;6.10;;;42.80;58.50;;;;;;5014625;28;20044;-66
2021/09/28 11:33:54;;;;;;;11.15;6.60;;;42.80;57.00;;;;;;5010538;28;20400;-67
2021/09/28 11:37:04;;;;;;;7.30;6.15;;;43.00;56.40;;;;;;5013126;28;20044;-67
2021/09/28 11:40:11;;;;;;;6.55;5.80;;;44.50;56.00;;;;;;5002586;28;20404;-67
2021/09/28 11:43:30;;;;;;;7.20;6.50;;;41.00;56.70;;;;;;5010017;28;20507;-66
2021/09/28 11:46:36;;;;;;;9.97;6.60;;;41.40;56.50;;;;;;5018406;28;20375;-66
2021/09/28 11:49:52;;;;;;;7.38;6.18;;;43.20;56.60;;;;;;5017835;28;20052;-66
2021/09/28 11:53:06;;;;;;;9.20;7.28;;;43.60;56.20;;;;;;5013910;28;20036;-67
2021/09/28 11:56:15;;;;;;;7.18;6.47;;;40.60;58.20;;;;;;5015125;28;20041;-66
2021/09/28 11:59:21;;;;;;;8.30;7.32;;;42.30;57.60;;;;;;5011734;28;20044;-66
2021/09/28 12:02:31;;;;;;;8.05;6.63;;;44.10;56.70;;;;;;5011107;28;20052;-66
2021/09/28 12:08:50;;;;;;;8.63;6.97;;;45.00;54.60;;;;;;5017116;28;20048;-67
2021/09/28 12:11:59;;;;;;;7.97;6.50;;;39.50;57.10;;;;;;5009665;28;20357;-66
2021/09/28 12:15:08;;;;;;;8.68;6.68;;;39.20;57.90;;;;;;5021450;28;20057;-66
2021/09/28 12:18:18;;;;;;;9.18;6.78;;;41.40;56.70;;;;;;5018603;28;20060;-67
2021/09/28 12:21:25;;;;;;;;;;;43.30;55.90;;;;;;5013347;28;20795;-66
2021/09/28 12:24:41;;;;;;;7.47;6.78;;;43.30;54.50;;;;;;5023696;28;19959;-66
2021/09/28 12:28:04;;;;;;;8.15;7.00;;;42.30;55.30;;;;;;5016636;28;20482;-67
2021/09/28 12:31:08;;;;;;;10.32;6.47;;;43.40;54.40;;;;;;5018295;28;20041;-66
2021/09/28 12:34:12;;;;;;;7.20;6.10;;;43.40;53.80;;;;;;5010104;28;20049;-66
2021/09/28 12:37:17;;;;;;;8.50;6.35;;;44.10;54.10;;;;;;5012869;28;20041;-64
2021/09/28 12:40:22;;;;;;;6.82;5.88;;;44.90;53.20;;;;;;5011233;28;20515;-66
2021/09/28 12:43:27;;;;;;;7.70;6.53;;;44.20;53.40;;;;;;5010601;28;20068;-66
2021/09/28 12:46:31;;;;;;;6.95;6.35;;;40.90;53.50;;;;;;5013657;28;20435;-66
2021/09/28 12:49:36;;;;;;;7.43;6.72;;;41.80;54.50;;;;;;5025552;28;20044;-66
2021/09/28 12:52:39;;;;;;;7.13;6.43;;;40.10;54.30;;;;;;5016188;28;20041;-66
2021/09/28 12:55:46;;;;;;;6.57;5.88;;;40.30;54.50;;;;;;5017426;28;20048;-65
2021/09/28 12:58:51;;;;;;;7.00;5.95;;;41.30;54.40;;;;;;5012892;28;20499;-66
2021/09/28 13:01:55;;;;;;;6.78;6.07;;;38.70;55.80;;;;;;5008061;28;20053;-67
2021/09/28 13:05:02;;;;;;;8.88;6.57;;;39.00;54.40;;;;;;5013200;28;20455;-67
2021/09/28 13:08:08;;;;;;;7.28;5.97;;;40.40;55.00;;;;;;5015593;28;20053;-66
2021/09/28 13:11:12;;;;;;;6.70;5.70;;;41.70;54.30;;;;;;5020373;28;20049;-66
2021/09/28 13:14:17;;;;;;;6.78;5.90;;;42.90;53.80;;;;;;5022968;28;20308;-66
2021/09/28 13:17:21;;;;;;;6.53;4.97;;;44.10;52.40;;;;;;5010446;28;20482;-67
2021/09/28 13:20:25;;;;;;;6.75;4.78;;;44.80;51.50;;;;;;5023048;28;20028;-66
2021/09/28 13:23:29;;;;;;;6.15;5.55;;;44.70;51.20;;;;;;5015710;28;20041;-67
2021/09/28 13:26:33;;;;;;;4.90;4.40;;;44.60;51.30;;;;;;5026345;28;20040;-68
2021/09/28 13:29:37;;;;;;;6.25;5.07;;;45.10;50.90;;;;;;5009525;28;20057;-67
2021/09/28 13:32:41;;;;;;;5.15;4.45;;;45.20;51.00;;;;;;5009652;28;20057;-68
2021/09/28 13:35:47;;;;;;;7.85;5.65;;;44.90;50.80;;;;;;5023388;28;20420;-67
2021/09/28 13:38:51;;;;;;;6.70;5.90;;;42.00;52.10;;;;;;5000928;28;20048;-66
2021/09/28 13:41:55;;;;;;;7.00;5.22;;;41.70;52.20;;;;;;5020344;28;20036;-66
2021/09/28 13:45:00;;;;;;;5.93;5.32;;;41.90;52.70;;;;;;5032377;28;20053;-66
2021/09/28 13:48:06;;;;;;;5.82;5.32;;;42.20;52.60;;;;;;5023020;28;20057;-65
2021/09/28 13:51:10;;;;;;;5.80;5.20;;;42.00;51.60;;;;;;5010792;28;20122;-67
2021/09/28 13:54:15;;;;;;;6.32;5.47;;;39.80;52.40;;;;;;5014192;28;20516;-66
2021/09/28 13:57:19;;;;;;;8.10;5.35;;;40.20;52.90;;;;;;5013142;28;20292;-67
2021/09/28 14:00:23;;;;;;;7.00;5.78;;;40.20;53.30;;;;;;5020738;28;20117;-66
2021/09/28 14:03:28;;;;;;;8.27;5.93;;;39.40;53.70;;;;;;5032651;28;20048;-66
2021/09/28 14:06:33;;;;;;;5.43;4.93;;;39.80;54.40;;;;;;5032704;28;20506;-66
2021/09/28 14:09:37;;;;;;;6.43;5.18;;;41.10;53.50;;;;;;5018046;28;20408;-67
2021/09/28 14:12:43;;;;;;;5.78;5.10;;;41.70;52.80;;;;;;5032393;28;20333;-67
2021/09/28 14:15:47;;;;;;;5.85;5.10;;;41.90;52.50;;;;;;5015592;28;20049;-67
2021/09/28 14:18:50;;;;;;;4.97;2.90;;;41.60;52.00;;;;;;5020170;28;20044;-67
2021/09/28 14:21:54;;;;;;;7.97;3.22;;;40.80;50.00;;;;;;5032269;28;20404;-66
2021/09/28 14:24:59;;;;;;;3.55;3.17;;;39.90;51.00;;;;;;5032443;28;20109;-66
2021/09/28 14:28:04;;;;;;;3.22;2.85;;;40.10;50.20;;;;;;5019721;28;20044;-67
2021/09/28 14:31:11;;;;;;;3.88;3.35;;;40.10;51.00;;;;;;5012483;28;20040;-67
2021/09/28 14:34:15;;;;;;;4.28;3.17;;;40.10;50.50;;;;;;5012240;28;20328;-67
2021/09/28 14:37:20;;;;;;;3.80;3.22;;;40.00;50.60;;;;;;5012323;28;20044;-67
2021/09/28 14:40:24;;;;;;;4.40;3.08;;;40.20;50.60;;;;;;5012697;28;20413;-67
2021/09/28 14:43:28;;;;;;;5.05;3.67;;;39.90;51.00;;;;;;5028426;28;20048;-66
2021/09/28 14:46:34;;;;;;;4.93;3.65;;;38.90;52.40;;;;;;5028090;28;20065;-66
2021/09/28 14:49:40;;;;;;;6.25;4.13;;;37.80;53.50;;;;;;5000454;28;20404;-66
2021/09/28 14:52:45;;;;;;;9.00;4.07;;;36.80;54.80;;;;;;5011713;28;20069;-67
2021/09/28 14:55:49;;;;;;;4.25;3.85;;;36.00;56.10;;;;;;5012569;28;20388;-66
2021/09/28 14:58:53;;;;;;;5.13;4.63;;;35.00;56.20;;;;;;5011571;28;20487;-65
2021/09/28 15:01:59;;;;;;;5.45;4.60;;;33.50;58.30;;;;;;5016967;28;20033;-66
2021/09/28 15:05:04;;;;;;;6.20;4.32;;;32.90;59.40;;;;;;5028756;28;20099;-65
2021/09/28 15:08:08;;;;;;;8.80;5.15;;;32.70;60.30;;;;;;5007888;28;20096;-65
2021/09/28 15:11:12;;;;;;;7.50;6.30;;;32.20;60.90;;;;;;5019551;28;20542;-65
2021/09/28 15:14:19;;;;;;;8.98;5.95;;;31.20;62.70;;;;;;5026787;28;20052;-65
2021/09/28 15:17:24;;;;;;;9.30;6.00;;;30.60;64.20;;;;;;5011583;28;20503;-67
2021/09/28 15:20:28;;;;;;;7.25;6.10;;;30.50;64.50;;;;;;4999243;28;20040;-68
2021/09/28 15:23:32;;;;;;;6.53;5.55;;;30.80;64.50;;;;;;5011357;28;20503;-68
2021/09/28 15:26:38;;;;;;;7.97;6.38;;;30.70;64.10;;;;;;5011108;28;20045;-68
2021/09/28 15:29:42;;;;;;;11.45;6.18;;;30.40;64.80;;;;;;5010970;28;20041;-67
2021/09/28 15:32:46;;;;;;;7.20;5.63;;;30.40;64.70;;;;;;5011192;28;20053;-66
2021/09/28 15:35:50;;;;;;;7.00;5.55;;;29.80;65.10;;;;;;5010881;28;20040;-67
2021/09/28 15:39:01;;;;;;;9.63;5.50;;;29.30;66.30;;;;;;5010906;28;20517;-67
2021/09/28 15:42:05;;;;;;;5.70;5.10;;;29.20;66.50;;;;;;5011367;28;20037;-66
2021/09/28 15:45:10;;;;;;;8.52;5.43;;;29.00;67.00;;;;;;5011141;28;20041;-67
2021/09/28 15:48:14;;;;;;;7.35;5.50;;;28.80;67.20;;;;;;5010913;28;20385;-67
2021/09/28 15:51:18;;;;;;;6.55;5.43;;;28.50;67.30;;;;;;4998713;28;20044;-67
2021/09/28 15:54:21;;;;;;;7.00;5.70;;;28.60;68.00;;;;;;5010963;28;20065;-66
2021/09/28 15:57:26;;;;;;;10.13;5.18;;;28.20;67.30;;;;;;5010488;28;20049;-68